Elizabeth Ann — WCZ5348 — position and weather

sailwx.info

Track history (hours):
 
Tides and Currents Weather Stations Pressure Air Temp Water Temp Dewpoint Dewpoint Depression Visibility Wind Speed Wind Dir Waves Ship Positions

Elizabeth Ann

Owner: ATLANTIC GULF TOWING LLC, Chesapeake, VA. More information available from US FCC via Universal Licensing System and Coast Guard Vessel Documentation Center.

Last reported at 2016-Oct-16 02:33 UTC. Time now 2016-Dec-11 06:19 UTC.
Position N 36°49' W 075°55'.
Warning: this ship's position is 56 days out of date.

Length 32 m; draft 4 m.

Type: Tug. MMSI: 366773150.

Date/timePositionNaut miles runAvg speedWind from/ knotsBaromVisibWave heightAir tempDewpointWater temp
2016-Oct-16 02:33N 36°49' W 075°55'9 8.9
2016-Oct-16 01:33N 36°57' W 076°01'16 7.8
2016-Oct-15 23:27N 36°58' W 076°21'5 5.4
2016-Oct-15 22:33N 36°53' W 076°20'4 1.3
2016-Oct-15 19:33N 36°49' W 076°17'71 5.4
2016-Oct-15 06:20N 38°00' W 076°15'48 7.0
2016-Oct-14 23:28N 38°48' W 076°27'26 5.3
2016-Oct-14 18:33N 39°13' W 076°34'10 8.4
2016-Oct-14 17:22N 39°07' W 076°24'8 9.4
2016-Oct-14 16:33N 38°59' W 076°23'133 7.4
2016-Oct-13 22:33N 36°46' W 076°18'2 2.0
2016-Oct-13 21:33N 36°48' W 076°17'3 3.1
2016-Oct-13 20:33N 36°51' W 076°19'19 2.6
2016-Oct-13 13:16N 37°09' W 076°10'66 6.5
2016-Oct-13 03:05N 38°15' W 076°19'20 6.8
2016-Oct-13 00:06N 38°34' W 076°27'14 7.2
2016-Oct-12 22:12N 38°48' W 076°26'5 7.0
2016-Oct-12 21:33N 38°52' W 076°25'13 6.3
2016-Oct-12 19:33N 39°05' W 076°24'6 6.1
2016-Oct-12 18:33N 39°11' W 076°26'5 5.2
2016-Oct-12 17:33N 39°13' W 076°32'2 0.5
2016-Oct-12 13:22N 39°13' W 076°35'0 0.0
2016-Oct-12 11:32N 39°13' W 076°35'0 0.2
2016-Oct-12 10:33N 39°13' W 076°35'1 0.3
2016-Oct-12 07:31N 39°13' W 076°34'0 0.0
2016-Oct-12 03:31N 39°13' W 076°34'0 0.0
2016-Oct-12 01:31N 39°13' W 076°34'0 0.0
2016-Oct-11 20:31N 39°13' W 076°34'0 0.1
2016-Oct-11 19:33N 39°13' W 076°34'2 0.7
2016-Oct-11 17:30N 39°15' W 076°34'2 0.5
2016-Oct-11 14:31N 39°13' W 076°34'0 0.0
2016-Oct-11 09:23N 39°13' W 076°34'0 0.0
2016-Oct-10 23:06N 39°13' W 076°34'0 0.0
2016-Oct-10 22:32N 39°13' W 076°34'2 0.3
2016-Oct-10 14:32N 39°15' W 076°35'0 0.0
2016-Oct-10 13:32N 39°15' W 076°35'0 0.0
2016-Oct-10 12:32N 39°15' W 076°35'0 0.0
2016-Oct-10 09:31N 39°15' W 076°35'0 0.0
2016-Oct-10 07:29N 39°15' W 076°35'0 0.0
2016-Oct-10 01:33N 39°15' W 076°35'0 0.0
2016-Oct-10 00:33N 39°15' W 076°35'0 0.0
2016-Oct-09 22:30N 39°15' W 076°35'0 0.0
2016-Oct-09 17:33N 39°15' W 076°35'0 0.0
2016-Oct-09 16:30N 39°15' W 076°35'0 0.0
2016-Oct-09 15:33N 39°15' W 076°35'0 0.0
2016-Oct-09 14:33N 39°15' W 076°35'0 0.0
2016-Oct-09 12:33N 39°15' W 076°35'0 0.0
2016-Oct-09 11:33N 39°15' W 076°35'0 0.0
2016-Oct-09 09:30N 39°15' W 076°35'0 0.0
2016-Oct-09 08:33N 39°15' W 076°35'0 0.0
2016-Oct-09 04:28N 39°15' W 076°35'0 0.0
2016-Oct-09 03:33N 39°15' W 076°35'0 0.0
2016-Oct-09 01:24N 39°15' W 076°35'0 0.0
2016-Oct-09 00:31N 39°15' W 076°35'0 0.0
2016-Oct-08 17:21N 39°15' W 076°35'0 0.0
2016-Oct-08 16:28N 39°15' W 076°35'0 0.0
2016-Oct-08 15:28N 39°15' W 076°35'0 0.0
2016-Oct-08 14:31N 39°15' W 076°35'0 0.0
2016-Oct-08 13:31N 39°15' W 076°35'0 0.0
2016-Oct-08 10:31N 39°15' W 076°35'0 0.3
2016-Oct-08 09:33N 39°15' W 076°35'0 0.1
2016-Oct-08 07:31N 39°15' W 076°35'0 0.0
2016-Oct-08 06:31N 39°15' W 076°35'0 0.0
2016-Oct-08 00:33N 39°15' W 076°35'0 0.0
2016-Oct-07 22:33N 39°15' W 076°35'0 0.0
2016-Oct-07 21:27N 39°15' W 076°35'0 0.0
2016-Oct-07 16:32N 39°15' W 076°35'0 0.0
2016-Oct-07 14:32N 39°15' W 076°35'0 0.0
2016-Oct-07 12:32N 39°15' W 076°35'0 0.0
2016-Oct-07 09:33N 39°15' W 076°35'0 0.0
2016-Oct-07 06:30N 39°15' W 076°35'0 0.0
2016-Oct-07 03:33N 39°15' W 076°35'0 0.0
2016-Oct-07 02:33N 39°15' W 076°35'0 0.0
2016-Oct-07 01:33N 39°15' W 076°35'0 0.0
2016-Oct-06 23:33N 39°15' W 076°35'0 0.2
2016-Oct-06 22:33N 39°15' W 076°35'0 0.1
2016-Oct-06 21:33N 39°15' W 076°35'0 0.0
2016-Oct-06 20:33N 39°15' W 076°35'0 0.0
2016-Oct-06 19:33N 39°15' W 076°35'0 0.0
2016-Oct-06 15:33N 39°15' W 076°35'0 0.0
2016-Oct-06 14:33N 39°15' W 076°35'0 0.0
2016-Oct-06 10:33N 39°15' W 076°35'0 0.0
2016-Oct-06 04:31N 39°15' W 076°35'0 0.0
2016-Oct-06 03:31N 39°15' W 076°35'0 0.3
2016-Oct-06 02:33N 39°15' W 076°35'  
Track history (hours):
 
Tides and Currents Weather Stations Pressure Air Temp Water Temp Dewpoint Dewpoint Depression Visibility Wind Speed Wind Dir Waves Ship Positions

Elizabeth Ann

Owner: ATLANTIC GULF TOWING LLC, Chesapeake, VA. More information available from US FCC via Universal Licensing System and Coast Guard Vessel Documentation Center.

Last reported at 2016-Oct-16 02:33 UTC. Time now 2016-Dec-11 06:19 UTC.
Position N 36°49' W 075°55'.
Warning: this ship's position is 56 days out of date.

Length 32 m; draft 4 m.

Type: Tug. MMSI: 366773150.

Date/timePositionNaut miles runAvg speedWind from/ knotsBaromVisibWave heightAir tempDewpointWater temp
2016-Oct-16 02:33N 36°49' W 075°55'9 8.9
2016-Oct-16 01:33N 36°57' W 076°01'16 7.8
2016-Oct-15 23:27N 36°58' W 076°21'5 5.4
2016-Oct-15 22:33N 36°53' W 076°20'4 1.3
2016-Oct-15 19:33N 36°49' W 076°17'71 5.4
2016-Oct-15 06:20N 38°00' W 076°15'48 7.0
2016-Oct-14 23:28N 38°48' W 076°27'26 5.3
2016-Oct-14 18:33N 39°13' W 076°34'10 8.4
2016-Oct-14 17:22N 39°07' W 076°24'8 9.4
2016-Oct-14 16:33N 38°59' W 076°23'133 7.4
2016-Oct-13 22:33N 36°46' W 076°18'2 2.0
2016-Oct-13 21:33N 36°48' W 076°17'3 3.1
2016-Oct-13 20:33N 36°51' W 076°19'19 2.6
2016-Oct-13 13:16N 37°09' W 076°10'66 6.5
2016-Oct-13 03:05N 38°15' W 076°19'20 6.8
2016-Oct-13 00:06N 38°34' W 076°27'14 7.2
2016-Oct-12 22:12N 38°48' W 076°26'5 7.0
2016-Oct-12 21:33N 38°52' W 076°25'13 6.3
2016-Oct-12 19:33N 39°05' W 076°24'6 6.1
2016-Oct-12 18:33N 39°11' W 076°26'5 5.2
2016-Oct-12 17:33N 39°13' W 076°32'2 0.5
2016-Oct-12 13:22N 39°13' W 076°35'0 0.0
2016-Oct-12 11:32N 39°13' W 076°35'0 0.2
2016-Oct-12 10:33N 39°13' W 076°35'1 0.3
2016-Oct-12 07:31N 39°13' W 076°34'0 0.0
2016-Oct-12 03:31N 39°13' W 076°34'0 0.0
2016-Oct-12 01:31N 39°13' W 076°34'0 0.0
2016-Oct-11 20:31N 39°13' W 076°34'0 0.1
2016-Oct-11 19:33N 39°13' W 076°34'2 0.7
2016-Oct-11 17:30N 39°15' W 076°34'2 0.5
2016-Oct-11 14:31N 39°13' W 076°34'0 0.0
2016-Oct-11 09:23N 39°13' W 076°34'0 0.0
2016-Oct-10 23:06N 39°13' W 076°34'0 0.0
2016-Oct-10 22:32N 39°13' W 076°34'2 0.3
2016-Oct-10 14:32N 39°15' W 076°35'0 0.0
2016-Oct-10 13:32N 39°15' W 076°35'0 0.0
2016-Oct-10 12:32N 39°15' W 076°35'0 0.0
2016-Oct-10 09:31N 39°15' W 076°35'0 0.0
2016-Oct-10 07:29N 39°15' W 076°35'0 0.0
2016-Oct-10 01:33N 39°15' W 076°35'0 0.0
2016-Oct-10 00:33N 39°15' W 076°35'0 0.0
2016-Oct-09 22:30N 39°15' W 076°35'0 0.0
2016-Oct-09 17:33N 39°15' W 076°35'0 0.0
2016-Oct-09 16:30N 39°15' W 076°35'0 0.0
2016-Oct-09 15:33N 39°15' W 076°35'0 0.0
2016-Oct-09 14:33N 39°15' W 076°35'0 0.0
2016-Oct-09 12:33N 39°15' W 076°35'0 0.0
2016-Oct-09 11:33N 39°15' W 076°35'0 0.0
2016-Oct-09 09:30N 39°15' W 076°35'0 0.0
2016-Oct-09 08:33N 39°15' W 076°35'0 0.0
2016-Oct-09 04:28N 39°15' W 076°35'0 0.0
2016-Oct-09 03:33N 39°15' W 076°35'0 0.0
2016-Oct-09 01:24N 39°15' W 076°35'0 0.0
2016-Oct-09 00:31N 39°15' W 076°35'0 0.0
2016-Oct-08 17:21N 39°15' W 076°35'0 0.0
2016-Oct-08 16:28N 39°15' W 076°35'0 0.0
2016-Oct-08 15:28N 39°15' W 076°35'0 0.0
2016-Oct-08 14:31N 39°15' W 076°35'0 0.0
2016-Oct-08 13:31N 39°15' W 076°35'0 0.0
2016-Oct-08 10:31N 39°15' W 076°35'0 0.3
2016-Oct-08 09:33N 39°15' W 076°35'0 0.1
2016-Oct-08 07:31N 39°15' W 076°35'0 0.0
2016-Oct-08 06:31N 39°15' W 076°35'0 0.0
2016-Oct-08 00:33N 39°15' W 076°35'0 0.0
2016-Oct-07 22:33N 39°15' W 076°35'0 0.0
2016-Oct-07 21:27N 39°15' W 076°35'0 0.0
2016-Oct-07 16:32N 39°15' W 076°35'0 0.0
2016-Oct-07 14:32N 39°15' W 076°35'0 0.0
2016-Oct-07 12:32N 39°15' W 076°35'0 0.0
2016-Oct-07 09:33N 39°15' W 076°35'0 0.0
2016-Oct-07 06:30N 39°15' W 076°35'0 0.0
2016-Oct-07 03:33N 39°15' W 076°35'0 0.0
2016-Oct-07 02:33N 39°15' W 076°35'0 0.0
2016-Oct-07 01:33N 39°15' W 076°35'0 0.0
2016-Oct-06 23:33N 39°15' W 076°35'0 0.2
2016-Oct-06 22:33N 39°15' W 076°35'0 0.1
2016-Oct-06 21:33N 39°15' W 076°35'0 0.0
2016-Oct-06 20:33N 39°15' W 076°35'0 0.0
2016-Oct-06 19:33N 39°15' W 076°35'0 0.0
2016-Oct-06 15:33N 39°15' W 076°35'0 0.0
2016-Oct-06 14:33N 39°15' W 076°35'0 0.0
2016-Oct-06 10:33N 39°15' W 076°35'0 0.0
2016-Oct-06 04:31N 39°15' W 076°35'0 0.0
2016-Oct-06 03:31N 39°15' W 076°35'0 0.3
2016-Oct-06 02:33N 39°15' W 076°35'  

Dump ship's entire track history